Time;durP1;ratioP1;P1;durP2;ratioP2;P2;SDS_P1;SDS_P2;PMS_P1;PMS_P2;Temp;Humidity;BMP_temperature;BMP_pressure;BME280_temperature;BME280_humidity;BME280_pressure;Samples;Min_cycle;Max_cycle;Signal;HPM_P1;HPM_P2
2021/05/21 00:01:47;;;;;;;1.48;0.80;;;14.70;99.90;;;;;;4110912;28;20045;-82
2021/05/21 00:03:48;;;;;;;1.92;0.88;;;14.70;99.90;;;;;;4109677;28;20346;-82
2021/05/21 00:05:48;;;;;;;1.55;0.70;;;14.70;99.90;;;;;;4111188;28;20035;-82
2021/05/21 00:07:49;;;;;;;1.52;0.77;;;14.70;99.90;;;;;;4129695;28;20117;-82
2021/05/21 00:09:49;;;;;;;2.13;0.80;;;14.70;99.90;;;;;;4126204;28;20035;-82
2021/05/21 00:11:50;;;;;;;1.83;0.68;;;14.80;99.90;;;;;;4129505;28;20035;-82
2021/05/21 00:13:51;;;;;;;2.75;0.90;;;14.70;99.90;;;;;;4129102;28;20110;-82
2021/05/21 00:15:51;;;;;;;0.93;0.60;;;14.70;99.90;;;;;;4128857;28;20034;-83
2021/05/21 00:17:52;;;;;;;1.45;0.80;;;14.80;99.90;;;;;;4127375;28;20403;-83
2021/05/21 00:19:53;;;;;;;3.47;1.00;;;14.80;99.90;;;;;;4126304;28;20038;-83
2021/05/21 00:21:53;;;;;;;1.95;0.80;;;14.80;99.90;;;;;;4111652;28;20299;-83
2021/05/21 00:23:54;;;;;;;1.48;0.80;;;14.80;99.90;;;;;;4108688;28;20118;-83
2021/05/21 00:25:55;;;;;;;0.95;0.68;;;14.80;99.90;;;;;;4126043;28;20101;-83
2021/05/21 00:27:55;;;;;;;2.67;1.13;;;14.80;99.90;;;;;;4127064;28;20022;-83
2021/05/21 00:29:56;;;;;;;2.47;0.77;;;14.70;99.90;;;;;;4126948;28;20030;-83
2021/05/21 00:31:56;;;;;;;3.78;1.00;;;14.70;99.90;;;;;;4110736;28;20031;-83
2021/05/21 00:33:57;;;;;;;1.65;0.50;;;14.70;99.90;;;;;;4110395;28;20086;-83
2021/05/21 00:35:58;;;;;;;0.93;0.80;;;14.80;99.90;;;;;;4126683;28;20089;-83
2021/05/21 00:37:58;;;;;;;5.15;1.20;;;14.70;99.90;;;;;;4126248;28;20053;-83
2021/05/21 00:39:59;;;;;;;0.77;0.55;;;14.80;99.90;;;;;;4127168;28;20050;-83
2021/05/21 00:42:00;;;;;;;4.53;0.82;;;14.80;99.90;;;;;;4110701;28;20091;-83
2021/05/21 00:44:00;;;;;;;1.50;0.80;;;14.80;99.90;;;;;;4108198;28;20603;-83
2021/05/21 00:46:01;;;;;;;1.50;0.80;;;14.80;99.90;;;;;;4127503;28;20122;-82
2021/05/21 00:48:02;;;;;;;2.85;0.70;;;14.80;99.90;;;;;;4118371;28;20035;-83
2021/05/21 00:50:03;;;;;;;1.48;0.70;;;14.80;99.90;;;;;;4111591;28;20178;-83
2021/05/21 00:52:05;;;;;;;1.95;0.60;;;14.70;99.90;;;;;;4120696;28;20454;-83
2021/05/21 00:54:06;;;;;;;1.95;0.80;;;14.80;99.90;;;;;;4123147;28;22201;-83
2021/05/21 00:56:08;;;;;;;1.73;0.98;;;14.80;99.90;;;;;;4111005;28;20499;-84
2021/05/21 00:58:09;;;;;;;1.08;0.52;;;14.70;99.90;;;;;;4127530;28;20453;-83
2021/05/21 01:00:11;;;;;;;2.17;0.65;;;14.70;99.90;;;;;;4128489;28;20137;-83
2021/05/21 01:02:12;;;;;;;0.77;0.50;;;14.70;99.90;;;;;;4124046;28;20040;-83
2021/05/21 01:04:14;;;;;;;2.50;0.75;;;14.70;99.90;;;;;;4126549;28;20475;-83
2021/05/21 01:06:16;;;;;;;1.17;0.73;;;14.70;99.90;;;;;;4111190;28;20042;-83
2021/05/21 01:08:18;;;;;;;1.17;0.75;;;14.70;99.90;;;;;;4126282;28;20044;-83
2021/05/21 01:10:19;;;;;;;4.80;0.82;;;14.70;99.90;;;;;;4110649;28;20050;-83
2021/05/21 01:12:21;;;;;;;1.08;0.60;;;14.70;99.90;;;;;;4125609;28;20038;-83
2021/05/21 01:14:22;;;;;;;3.15;0.70;;;14.70;99.90;;;;;;4111266;28;20047;-83
2021/05/21 01:16:22;;;;;;;3.28;0.93;;;14.60;99.90;;;;;;4109998;28;21195;-83
2021/05/21 01:18:23;;;;;;;3.50;1.02;;;14.60;99.90;;;;;;4109961;28;20117;-83
2021/05/21 01:20:24;;;;;;;1.60;0.60;;;14.60;99.90;;;;;;4110507;28;20064;-83
2021/05/21 01:22:24;;;;;;;3.63;0.65;;;14.60;99.90;;;;;;4128299;28;20122;-83
2021/05/21 01:24:25;;;;;;;3.03;0.68;;;14.70;99.90;;;;;;4114377;28;20047;-83
2021/05/21 01:26:26;;;;;;;1.13;0.55;;;14.60;99.90;;;;;;4116261;28;20046;-83
2021/05/21 01:28:27;;;;;;;1.98;0.63;;;14.60;99.90;;;;;;4128526;28;20467;-83
2021/05/21 01:30:28;;;;;;;1.70;0.77;;;14.60;99.90;;;;;;4112571;28;20031;-83
2021/05/21 01:32:28;;;;;;;2.13;0.75;;;14.60;99.90;;;;;;4112051;28;20043;-83
2021/05/21 01:34:29;;;;;;;3.35;0.68;;;14.60;99.90;;;;;;4113440;28;20023;-83
2021/05/21 01:36:30;;;;;;;1.20;0.70;;;14.60;99.90;;;;;;4113177;28;20035;-83
2021/05/21 01:38:30;;;;;;;1.98;0.82;;;14.60;99.90;;;;;;4112354;28;20562;-83
2021/05/21 01:40:32;;;;;;;3.03;0.93;;;14.60;99.90;;;;;;4126501;28;20042;-83
2021/05/21 01:42:32;;;;;;;3.38;0.70;;;14.60;99.90;;;;;;4129082;28;20031;-83
2021/05/21 01:44:33;;;;;;;1.85;0.80;;;14.60;99.90;;;;;;4129460;28;20042;-83
2021/05/21 01:46:34;;;;;;;1.42;0.80;;;14.60;99.90;;;;;;4129403;28;20085;-83
2021/05/21 01:48:34;;;;;;;2.97;0.80;;;14.60;99.90;;;;;;4109956;28;20027;-83
2021/05/21 01:50:35;;;;;;;4.00;0.90;;;14.60;99.90;;;;;;4112798;28;20126;-83
2021/05/21 01:52:37;;;;;;;4.05;1.10;;;14.60;99.90;;;;;;4129712;28;20054;-83
2021/05/21 01:54:38;;;;;;;2.28;0.77;;;14.60;99.90;;;;;;4112321;28;20042;-83
2021/05/21 01:56:38;;;;;;;1.13;0.70;;;14.60;99.90;;;;;;4126026;28;20041;-83
2021/05/21 01:58:39;;;;;;;2.20;0.90;;;14.60;99.90;;;;;;4125221;28;20418;-83
2021/05/21 02:00:39;;;;;;;2.05;0.70;;;14.60;99.90;;;;;;4128370;28;20034;-83
2021/05/21 02:02:40;;;;;;;1.85;0.93;;;14.60;99.90;;;;;;4128666;28;20034;-83
2021/05/21 02:04:42;;;;;;;2.53;0.75;;;14.60;99.90;;;;;;4111503;28;20034;-83
2021/05/21 02:06:43;;;;;;;2.90;0.93;;;14.60;99.90;;;;;;4113227;28;20027;-83
2021/05/21 02:08:43;;;;;;;1.35;0.68;;;14.60;99.90;;;;;;4145733;28;20030;-83
2021/05/21 02:10:44;;;;;;;1.60;0.50;;;14.60;99.90;;;;;;4127303;28;20038;-83
2021/05/21 02:12:45;;;;;;;2.47;0.70;;;14.60;99.90;;;;;;4113251;28;20046;-83
2021/05/21 02:14:46;;;;;;;1.85;0.60;;;14.60;99.90;;;;;;4131319;28;20058;-83
2021/05/21 02:16:48;;;;;;;2.30;0.70;;;14.60;99.90;;;;;;4129416;28;20030;-83
2021/05/21 02:18:49;;;;;;;1.58;0.70;;;14.60;99.90;;;;;;4127359;28;20035;-83
2021/05/21 02:20:49;;;;;;;4.45;1.15;;;14.60;99.90;;;;;;4128364;28;20328;-83
2021/05/21 02:22:50;;;;;;;1.77;0.85;;;14.60;99.90;;;;;;4129265;28;20034;-83
2021/05/21 02:24:53;;;;;;;4.60;0.70;;;14.60;99.90;;;;;;4112538;28;20031;-83
2021/05/21 02:26:54;;;;;;;1.65;0.70;;;14.60;99.90;;;;;;4124753;28;20066;-83
2021/05/21 02:28:55;;;;;;;3.05;0.75;;;14.60;99.90;;;;;;4111076;28;20035;-83
2021/05/21 02:30:56;;;;;;;3.88;0.80;;;14.60;99.90;;;;;;4128969;28;20038;-83
2021/05/21 02:32:57;;;;;;;2.03;0.80;;;14.50;99.90;;;;;;4126512;28;20125;-83
2021/05/21 02:34:58;;;;;;;1.92;0.80;;;14.40;99.90;;;;;;4126674;28;20061;-84
2021/05/21 02:36:59;;;;;;;2.15;0.80;;;14.40;99.90;;;;;;4112621;28;20427;-83
2021/05/21 02:39:00;;;;;;;2.83;0.60;;;14.40;99.90;;;;;;4129237;28;20038;-83
2021/05/21 02:41:01;;;;;;;2.75;0.88;;;14.40;99.90;;;;;;4131344;28;20022;-83
2021/05/21 02:43:01;;;;;;;2.97;1.02;;;14.40;99.90;;;;;;4129621;28;20037;-83
2021/05/21 02:45:03;;;;;;;1.83;0.85;;;14.40;99.90;;;;;;4128023;28;20110;-83
2021/05/21 02:47:04;;;;;;;2.05;0.70;;;14.30;99.90;;;;;;4125143;28;20038;-83
2021/05/21 02:49:05;;;;;;;1.58;0.93;;;14.30;99.90;;;;;;4125493;28;20088;-83
2021/05/21 02:51:05;;;;;;;1.63;0.60;;;14.30;99.90;;;;;;4126721;28;20284;-83
2021/05/21 02:53:06;;;;;;;2.47;0.90;;;14.20;99.90;;;;;;4105326;28;20389;-83
2021/05/21 02:55:07;;;;;;;1.52;0.65;;;14.20;99.90;;;;;;4120790;28;20031;-83
2021/05/21 02:57:08;;;;;;;1.67;0.82;;;14.20;99.90;;;;;;4112815;28;20133;-83
2021/05/21 02:59:09;;;;;;;1.80;0.70;;;14.20;99.90;;;;;;4129605;28;20034;-83
2021/05/21 03:01:10;;;;;;;3.13;1.02;;;14.10;99.90;;;;;;4126998;28;20030;-83
2021/05/21 03:03:10;;;;;;;1.20;0.60;;;14.10;99.90;;;;;;4128453;28;20041;-83
2021/05/21 03:05:11;;;;;;;2.13;0.70;;;14.10;99.90;;;;;;4127496;28;20045;-83
2021/05/21 03:07:12;;;;;;;4.18;0.80;;;14.10;99.90;;;;;;4129974;28;20057;-83
2021/05/21 03:09:12;;;;;;;1.95;0.82;;;14.20;99.90;;;;;;4109089;28;20570;-83
2021/05/21 03:11:13;;;;;;;2.88;0.68;;;14.10;99.90;;;;;;4125196;28;20031;-83
2021/05/21 03:13:14;;;;;;;2.05;0.70;;;14.20;99.90;;;;;;4128086;28;20390;-83
2021/05/21 03:15:14;;;;;;;1.52;0.60;;;14.20;99.90;;;;;;4127622;28;20098;-83
2021/05/21 03:17:15;;;;;;;2.58;0.82;;;14.20;99.90;;;;;;4112338;28;20092;-83
2021/05/21 03:19:16;;;;;;;2.00;0.68;;;14.10;99.90;;;;;;4111161;28;20555;-83
2021/05/21 03:21:16;;;;;;;4.85;1.02;;;14.20;99.90;;;;;;4127510;28;20185;-83
2021/05/21 03:23:19;;;;;;;2.72;0.77;;;14.20;99.90;;;;;;4110124;28;20069;-83
2021/05/21 03:25:20;;;;;;;2.95;0.60;;;14.10;99.90;;;;;;4127217;28;20062;-83
2021/05/21 03:27:20;;;;;;;2.08;0.80;;;14.10;99.90;;;;;;4127925;28;20511;-83
2021/05/21 03:29:21;;;;;;;2.47;0.70;;;14.10;99.90;;;;;;4111518;28;20619;-83
2021/05/21 03:31:21;;;;;;;1.95;0.80;;;14.10;99.90;;;;;;4122594;28;20109;-83
2021/05/21 03:33:22;;;;;;;2.63;0.95;;;14.00;99.90;;;;;;4128585;28;20023;-83
2021/05/21 03:35:23;;;;;;;1.30;0.80;;;14.10;99.90;;;;;;4126265;28;20031;-83
2021/05/21 03:37:23;;;;;;;2.08;0.93;;;14.00;99.90;;;;;;4106391;28;20099;-83
2021/05/21 03:39:24;;;;;;;1.13;0.68;;;14.10;99.90;;;;;;4108723;28;20043;-83
2021/05/21 03:41:25;;;;;;;2.20;0.90;;;14.10;99.90;;;;;;4124201;28;20487;-83
2021/05/21 03:43:25;;;;;;;3.33;0.90;;;14.10;99.90;;;;;;4106154;28;20463;-83
2021/05/21 03:45:27;;;;;;;0.77;0.70;;;14.10;99.90;;;;;;4123347;28;20469;-83
2021/05/21 03:47:27;;;;;;;2.53;0.80;;;14.10;99.90;;;;;;4119453;28;20050;-83
2021/05/21 03:49:30;;;;;;;2.60;1.00;;;14.10;99.90;;;;;;4120906;28;20034;-83
2021/05/21 03:51:31;;;;;;;3.58;1.10;;;14.00;99.90;;;;;;4123403;28;20041;-83
2021/05/21 03:53:31;;;;;;;2.17;0.60;;;14.00;99.90;;;;;;4121189;28;20030;-83
2021/05/21 03:55:32;;;;;;;2.03;1.00;;;14.00;99.90;;;;;;4107343;28;20019;-83
2021/05/21 03:57:33;;;;;;;2.38;0.90;;;14.00;99.90;;;;;;4125466;28;20054;-83
2021/05/21 03:59:34;;;;;;;3.45;0.80;;;13.90;99.90;;;;;;4108731;28;20169;-83
2021/05/21 04:01:35;;;;;;;3.13;0.90;;;13.90;99.90;;;;;;4109713;28;20398;-83
2021/05/21 04:03:36;;;;;;;2.30;0.75;;;13.90;99.90;;;;;;4126759;28;20030;-83
2021/05/21 04:05:37;;;;;;;2.78;0.90;;;13.90;99.90;;;;;;4127423;28;20108;-83
2021/05/21 04:07:37;;;;;;;2.90;1.08;;;14.00;99.90;;;;;;4108644;28;20041;-83
2021/05/21 04:09:38;;;;;;;2.58;0.70;;;14.00;99.90;;;;;;4118592;28;20105;-83
2021/05/21 04:11:39;;;;;;;1.40;0.70;;;14.00;99.90;;;;;;4109862;28;20194;-84
2021/05/21 04:13:40;;;;;;;1.95;0.90;;;14.00;99.90;;;;;;4127955;28;20035;-83
2021/05/21 04:15:41;;;;;;;2.10;0.93;;;14.00;99.90;;;;;;4129638;28;20498;-83
2021/05/21 04:17:42;;;;;;;7.78;0.88;;;14.00;99.90;;;;;;4124674;28;20041;-83
2021/05/21 04:19:42;;;;;;;3.40;0.77;;;14.00;99.90;;;;;;4126732;28;20027;-83
2021/05/21 04:21:43;;;;;;;2.10;0.50;;;14.00;99.90;;;;;;4107417;28;20484;-83
2021/05/21 04:23:43;;;;;;;3.70;0.90;;;14.00;99.90;;;;;;4126542;28;20401;-83
2021/05/21 04:25:44;;;;;;;3.30;1.02;;;14.10;99.90;;;;;;4111391;28;20147;-83
2021/05/21 04:27:45;;;;;;;3.30;1.00;;;14.10;99.90;;;;;;4127054;28;20041;-83
2021/05/21 04:29:45;;;;;;;3.60;0.98;;;14.10;99.90;;;;;;4110411;28;20039;-83
2021/05/21 04:31:46;;;;;;;5.03;1.30;;;14.10;99.90;;;;;;4126335;28;20070;-83
2021/05/21 04:33:46;;;;;;;1.58;0.57;;;14.10;99.90;;;;;;4127689;28;20080;-83
2021/05/21 04:35:47;;;;;;;2.53;0.90;;;14.10;99.90;;;;;;4126760;28;20427;-83
2021/05/21 04:37:48;;;;;;;1.92;1.00;;;14.20;99.90;;;;;;4110310;28;20042;-83
2021/05/21 04:39:49;;;;;;;5.22;1.10;;;14.10;99.90;;;;;;4111558;28;20227;-83
2021/05/21 04:41:50;;;;;;;3.70;1.10;;;14.20;99.90;;;;;;4128594;28;20041;-83
2021/05/21 04:43:53;;;;;;;3.20;0.70;;;14.10;99.90;;;;;;4127659;28;20026;-83
2021/05/21 04:45:54;;;;;;;2.33;0.95;;;14.10;99.90;;;;;;4126307;28;20054;-83
2021/05/21 04:47:55;;;;;;;2.40;0.93;;;14.10;99.90;;;;;;4124512;28;20168;-83
2021/05/21 04:49:55;;;;;;;1.35;0.85;;;14.20;99.90;;;;;;4112205;28;20396;-83
2021/05/21 04:51:56;;;;;;;2.20;0.75;;;14.10;99.90;;;;;;4126147;28;20456;-83
2021/05/21 04:54:01;;;;;;;3.47;0.93;;;14.10;99.90;;;;;;4128230;28;20031;-83
2021/05/21 04:56:02;;;;;;;3.60;0.70;;;14.10;99.90;;;;;;4126677;28;20113;-83
2021/05/21 04:58:02;;;;;;;2.50;0.75;;;14.20;99.90;;;;;;4113754;28;20046;-84
2021/05/21 05:00:04;;;;;;;3.72;1.00;;;14.20;99.90;;;;;;4110697;28;20114;-83
2021/05/21 05:02:05;;;;;;;2.50;1.00;;;14.20;99.90;;;;;;4130740;28;20045;-83
2021/05/21 05:04:05;;;;;;;2.95;0.90;;;14.20;99.90;;;;;;4120706;28;20034;-83
2021/05/21 05:06:06;;;;;;;3.30;1.10;;;14.20;99.90;;;;;;4114335;28;20035;-83
2021/05/21 05:08:09;;;;;;;3.53;0.93;;;14.20;99.90;;;;;;4119851;28;20283;-83
2021/05/21 05:10:10;;;;;;;4.30;0.98;;;14.20;99.90;;;;;;4124197;28;20142;-83
2021/05/21 05:12:11;;;;;;;2.20;0.73;;;14.20;99.90;;;;;;4129432;28;20038;-83
2021/05/21 05:14:13;;;;;;;3.00;0.73;;;14.20;99.90;;;;;;4130037;28;20085;-83
2021/05/21 05:16:14;;;;;;;2.77;1.10;;;14.30;99.90;;;;;;4126226;28;20038;-83
2021/05/21 05:18:14;;;;;;;5.20;1.25;;;14.20;99.90;;;;;;4114762;28;20039;-83
2021/05/21 05:20:16;;;;;;;2.72;0.80;;;14.20;99.90;;;;;;4140357;28;20048;-83
2021/05/21 05:22:16;;;;;;;2.58;0.90;;;14.20;99.90;;;;;;4140490;28;20121;-83
2021/05/21 05:24:19;;;;;;;2.97;0.95;;;14.20;99.90;;;;;;4123373;28;20038;-83
2021/05/21 05:26:19;;;;;;;3.67;0.90;;;14.20;99.90;;;;;;4109791;28;20542;-83
2021/05/21 05:28:20;;;;;;;2.38;1.17;;;14.20;99.90;;;;;;4106307;28;20252;-81
2021/05/21 05:30:21;;;;;;;1.02;0.52;;;14.20;99.90;;;;;;4106902;28;20379;-81
2021/05/21 05:32:22;;;;;;;3.60;0.95;;;14.20;99.90;;;;;;4123254;28;20483;-81
2021/05/21 05:34:23;;;;;;;3.60;0.98;;;14.20;99.90;;;;;;4123725;28;20544;-81
2021/05/21 05:36:23;;;;;;;3.70;1.10;;;14.30;99.90;;;;;;4091276;28;20043;-81
2021/05/21 05:38:25;;;;;;;3.47;1.15;;;14.20;99.90;;;;;;4124507;28;20526;-81
2021/05/21 05:40:27;;;;;;;2.88;1.05;;;14.30;99.90;;;;;;4121724;28;20038;-81
2021/05/21 05:42:27;;;;;;;3.70;1.15;;;14.30;99.90;;;;;;4122481;28;20398;-81
2021/05/21 05:44:30;;;;;;;5.72;1.45;;;14.30;99.90;;;;;;4110553;28;20062;-81
2021/05/21 05:46:31;;;;;;;2.92;1.10;;;14.30;99.90;;;;;;4124353;28;20046;-81
2021/05/21 05:48:33;;;;;;;8.10;1.20;;;14.30;99.90;;;;;;4123948;28;20034;-81
2021/05/21 05:50:33;;;;;;;3.67;0.90;;;14.20;99.90;;;;;;4126608;28;20038;-81
2021/05/21 05:52:34;;;;;;;4.57;1.27;;;14.30;99.90;;;;;;4124972;28;20092;-81
2021/05/21 05:54:35;;;;;;;5.25;1.40;;;14.30;99.90;;;;;;4124874;28;20085;-81
2021/05/21 05:56:35;;;;;;;3.70;1.52;;;14.40;99.90;;;;;;4125060;28;20031;-81
2021/05/21 05:58:36;;;;;;;4.07;1.27;;;14.40;99.90;;;;;;4104727;28;20031;-81
2021/05/21 06:00:38;;;;;;;3.75;0.95;;;14.50;99.90;;;;;;4124591;28;20057;-81
2021/05/21 06:02:39;;;;;;;5.40;1.55;;;14.50;99.90;;;;;;4119898;28;20061;-80
2021/05/21 06:04:40;;;;;;;5.07;1.13;;;14.60;99.90;;;;;;4123356;28;20113;-81
2021/05/21 06:06:41;;;;;;;2.42;1.17;;;14.60;99.90;;;;;;4122495;28;20039;-81
2021/05/21 06:08:42;;;;;;;5.75;1.23;;;14.60;99.90;;;;;;4107673;28;20535;-81
2021/05/21 06:10:42;;;;;;;8.85;1.58;;;14.60;99.90;;;;;;4124366;28;20045;-81
2021/05/21 06:12:44;;;;;;;3.10;1.10;;;14.60;99.90;;;;;;4107332;28;20500;-80
2021/05/21 06:14:45;;;;;;;3.35;1.30;;;14.70;99.90;;;;;;4121723;28;20113;-81
2021/05/21 06:16:45;;;;;;;5.97;1.30;;;14.70;99.90;;;;;;4123836;28;20035;-81
2021/05/21 06:18:47;;;;;;;4.15;1.55;;;14.60;99.90;;;;;;4123678;28;20069;-81
2021/05/21 06:20:48;;;;;;;5.43;1.35;;;14.60;99.90;;;;;;4108976;28;20039;-80
2021/05/21 06:22:49;;;;;;;3.20;1.23;;;14.60;99.90;;;;;;4127242;28;20031;-80
2021/05/21 06:24:52;;;;;;;4.82;1.40;;;14.60;99.90;;;;;;4125408;28;20577;-81
2021/05/21 06:27:15;;;;;;;;;;;14.60;99.90;;;;;;4129055;28;20600;-81
2021/05/21 06:29:15;;;;;;;6.90;1.52;;;14.70;99.90;;;;;;4129166;28;20008;-81
2021/05/21 06:31:17;;;;;;;8.55;1.77;;;14.70;99.90;;;;;;4129446;28;20039;-80
2021/05/21 06:33:19;;;;;;;5.28;1.60;;;14.70;99.90;;;;;;4128822;28;20447;-80
2021/05/21 06:35:26;;;;;;;4.97;1.20;;;14.70;99.90;;;;;;4131529;28;20387;-81
2021/05/21 06:37:29;;;;;;;3.42;1.15;;;14.70;99.90;;;;;;4112737;28;20134;-80
2021/05/21 06:39:29;;;;;;;5.15;1.70;;;14.70;99.90;;;;;;4126432;28;20035;-80
2021/05/21 06:41:31;;;;;;;5.93;1.60;;;14.70;99.90;;;;;;4115572;28;20115;-81
2021/05/21 06:43:34;;;;;;;4.40;1.42;;;14.70;99.90;;;;;;4133175;28;20034;-80
2021/05/21 06:45:37;;;;;;;4.70;1.27;;;14.80;99.90;;;;;;4132071;28;20103;-80
2021/05/21 06:47:38;;;;;;;3.78;1.20;;;14.80;99.90;;;;;;4131041;28;20037;-81
2021/05/21 06:49:39;;;;;;;7.70;1.75;;;14.80;99.90;;;;;;4112691;28;20579;-81
2021/05/21 06:51:42;;;;;;;7.72;1.50;;;14.80;99.90;;;;;;4126921;28;20049;-82
2021/05/21 06:53:54;;;;;;;;;;;14.80;99.90;;;;;;4130806;28;20125;-81
2021/05/21 06:55:58;;;;;;;6.05;2.08;;;14.90;99.90;;;;;;4128386;28;19918;-80
2021/05/21 06:57:59;;;;;;;6.95;1.88;;;14.90;99.90;;;;;;4126541;28;20026;-80
2021/05/21 07:00:05;;;;;;;5.72;1.60;;;15.00;99.90;;;;;;4107951;28;20031;-81
2021/05/21 07:02:12;;;;;;;5.40;1.73;;;15.10;99.90;;;;;;4126588;28;20034;-81
2021/05/21 07:04:22;;;;;;;12.02;2.33;;;15.20;99.90;;;;;;4113174;28;20066;-80
2021/05/21 07:06:27;;;;;;;6.57;1.92;;;15.20;99.90;;;;;;4128858;28;20041;-81
2021/05/21 07:08:28;;;;;;;8.45;2.03;;;15.30;99.90;;;;;;4114571;28;20054;-81
2021/05/21 07:10:38;;;;;;;6.47;2.00;;;15.20;99.90;;;;;;4128013;28;21477;-81
2021/05/21 07:12:39;;;;;;;7.00;1.77;;;15.20;99.90;;;;;;4131621;28;20042;-81
2021/05/21 07:14:53;;;;;;;5.95;2.10;;;15.30;99.90;;;;;;4126104;28;20529;-81
2021/05/21 07:16:59;;;;;;;5.55;1.63;;;15.20;99.90;;;;;;4130077;28;20109;-81
2021/05/21 07:19:02;;;;;;;10.63;2.00;;;15.30;99.90;;;;;;4129929;28;20034;-81
2021/05/21 07:21:04;;;;;;;8.13;2.05;;;15.30;99.90;;;;;;4128688;28;20084;-80
2021/05/21 07:23:12;;;;;;;6.07;1.60;;;15.30;99.90;;;;;;4126548;28;20038;-81
2021/05/21 07:25:19;;;;;;;5.15;1.90;;;15.40;99.90;;;;;;4132082;28;20034;-80
2021/05/21 07:27:26;;;;;;;13.05;2.47;;;15.40;99.90;;;;;;4125406;28;20042;-81
2021/05/21 07:29:37;;;;;;;16.33;2.47;;;15.30;99.90;;;;;;4121800;28;20038;-81
2021/05/21 07:31:37;;;;;;;11.02;2.60;;;15.20;99.90;;;;;;4113119;28;20484;-81
2021/05/21 07:33:40;;;;;;;6.65;2.25;;;15.30;99.90;;;;;;4109538;28;20081;-80
2021/05/21 07:35:40;;;;;;;9.60;1.92;;;15.20;99.90;;;;;;4120777;28;20521;-81
2021/05/21 07:37:45;;;;;;;11.52;2.35;;;15.20;99.90;;;;;;4112159;28;20049;-80
2021/05/21 07:39:52;;;;;;;12.20;2.45;;;15.20;99.90;;;;;;4144031;28;20041;-81
2021/05/21 07:41:56;;;;;;;10.15;2.20;;;15.10;99.90;;;;;;4114223;28;20039;-81
2021/05/21 07:43:58;;;;;;;10.05;2.33;;;15.10;99.90;;;;;;4125853;28;20175;-81
2021/05/21 07:46:11;;;;;;;18.23;2.47;;;15.00;99.90;;;;;;4105541;28;20149;-81
2021/05/21 07:48:26;;;;;;;;;;;15.00;99.90;;;;;;4127838;28;20037;-81
2021/05/21 07:50:27;;;;;;;9.18;2.35;;;15.00;99.90;;;;;;4123341;28;19924;-80
2021/05/21 07:52:27;;;;;;;13.02;2.38;;;15.00;99.90;;;;;;4135111;28;20522;-81
2021/05/21 07:54:29;;;;;;;6.82;2.28;;;15.00;99.90;;;;;;4111415;28;20454;-81
2021/05/21 07:56:30;;;;;;;13.15;2.50;;;15.00;99.90;;;;;;4143706;28;20029;-80
2021/05/21 07:58:31;;;;;;;7.82;2.53;;;15.10;99.90;;;;;;4123012;28;20035;-80
2021/05/21 08:00:36;;;;;;;9.35;2.80;;;15.10;99.90;;;;;;4127492;28;20117;-80
2021/05/21 08:02:38;;;;;;;8.20;2.47;;;15.10;99.90;;;;;;4124541;28;20085;-81
2021/05/21 08:04:39;;;;;;;7.63;2.20;;;15.10;99.90;;;;;;4132278;28;20030;-80
2021/05/21 08:06:48;;;;;;;11.93;2.80;;;15.30;99.90;;;;;;4130102;28;20564;-80
2021/05/21 08:09:05;;;;;;;6.50;1.83;;;15.30;99.90;;;;;;4132652;28;20126;-81
2021/05/21 08:11:07;;;;;;;7.13;2.25;;;15.40;99.90;;;;;;4127511;28;20099;-80
2021/05/21 08:13:09;;;;;;;12.82;2.78;;;15.50;99.90;;;;;;4127321;28;20045;-80
2021/05/21 08:15:10;;;;;;;8.77;2.10;;;15.60;99.90;;;;;;4115416;28;20051;-80
2021/05/21 08:17:11;;;;;;;8.93;2.60;;;15.70;99.90;;;;;;4127127;28;20364;-81
2021/05/21 08:19:19;;;;;;;10.45;2.80;;;15.80;99.90;;;;;;4118119;28;20123;-81
2021/05/21 08:21:24;;;;;;;11.82;2.42;;;15.80;99.90;;;;;;4125624;28;20042;-81
2021/05/21 08:23:25;;;;;;;12.57;3.25;;;15.90;99.90;;;;;;4109253;28;20038;-81
2021/05/21 08:25:27;;;;;;;10.10;2.22;;;15.80;99.90;;;;;;4128175;28;20054;-81
2021/05/21 08:27:29;;;;;;;9.88;2.78;;;15.80;99.90;;;;;;4127136;28;20038;-80
2021/05/21 08:29:29;;;;;;;12.13;2.83;;;15.90;99.90;;;;;;4124800;28;20434;-81
2021/05/21 08:31:37;;;;;;;10.10;2.50;;;16.00;99.90;;;;;;4113156;28;20042;-81
2021/05/21 08:33:45;;;;;;;13.23;2.47;;;16.10;99.90;;;;;;4132672;28;20037;-81
2021/05/21 08:35:47;;;;;;;11.35;2.72;;;16.10;99.90;;;;;;4118790;28;20113;-81
2021/05/21 08:37:49;;;;;;;;;;;16.10;99.90;;;;;;4137938;28;20033;-81
2021/05/21 08:39:49;;;;;;;6.35;2.30;;;16.00;99.90;;;;;;4133328;28;19910;-80
2021/05/21 08:41:58;;;;;;;7.22;2.47;;;16.00;99.90;;;;;;4132736;28;20564;-80
2021/05/21 08:44:08;;;;;;;12.73;3.38;;;16.00;99.90;;;;;;4119968;28;20550;-80
2021/05/21 08:46:12;;;;;;;9.35;2.58;;;16.00;99.90;;;;;;4126478;28;20157;-80
2021/05/21 08:48:26;;;;;;;8.85;2.50;;;16.10;99.90;;;;;;4130065;28;20034;-80
2021/05/21 08:50:33;;;;;;;8.10;2.20;;;16.20;99.90;;;;;;4107364;28;20034;-80
2021/05/21 08:52:34;;;;;;;12.18;2.80;;;16.20;99.90;;;;;;4126516;28;20510;-80
2021/05/21 08:54:36;;;;;;;10.88;2.60;;;16.30;99.90;;;;;;4133805;28;20038;-80
2021/05/21 08:56:38;;;;;;;10.57;2.40;;;16.40;99.80;;;;;;4132170;28;20030;-80
2021/05/21 08:58:44;;;;;;;11.40;2.80;;;16.50;96.70;;;;;;4131422;28;20587;-80
2021/05/21 09:00:45;;;;;;;12.38;2.60;;;16.60;95.80;;;;;;4136909;28;20034;-80
2021/05/21 09:02:48;;;;;;;9.88;2.47;;;16.60;94.50;;;;;;4129476;28;20050;-80
2021/05/21 09:04:59;;;;;;;21.50;3.30;;;16.70;95.70;;;;;;4127411;28;20039;-80
2021/05/21 09:07:03;;;;;;;9.45;2.72;;;16.80;94.60;;;;;;4132397;28;20507;-80
2021/05/21 09:09:05;;;;;;;11.57;3.13;;;16.80;95.30;;;;;;4130388;28;20038;-80
2021/05/21 09:11:22;;;;;;;11.63;2.80;;;16.70;94.60;;;;;;4110485;28;20050;-82
2021/05/21 09:13:33;;;;;;;9.70;2.35;;;16.70;93.30;;;;;;4132514;28;20054;-80
2021/05/21 09:15:33;;;;;;;10.40;2.50;;;16.70;94.50;;;;;;4117133;28;20475;-80
2021/05/21 09:17:34;;;;;;;10.55;2.75;;;16.70;95.70;;;;;;4132249;28;20038;-81
2021/05/21 09:19:35;;;;;;;13.25;2.42;;;16.80;95.60;;;;;;4130953;28;20034;-80
2021/05/21 09:22:08;;;;;;;8.95;2.10;;;17.00;95.20;;;;;;4130938;28;20045;-80
2021/05/21 09:24:18;;;;;;;;;;;17.20;94.20;;;;;;4130068;28;20034;-80
2021/05/21 09:26:38;;;;;;;7.70;2.25;;;17.20;93.40;;;;;;4129792;28;19909;-80
2021/05/21 09:28:46;;;;;;;13.73;2.45;;;17.40;94.40;;;;;;4129539;28;20422;-80
2021/05/21 09:31:23;;;;;;;9.77;2.85;;;17.50;91.40;;;;;;4127665;28;20057;-80
2021/05/21 09:33:38;;;;;;;10.38;2.42;;;17.50;90.80;;;;;;4127118;28;20121;-81
2021/05/21 09:35:54;;;;;;;7.40;2.33;;;17.50;91.40;;;;;;4125108;28;20030;-80
2021/05/21 09:37:56;;;;;;;11.48;2.42;;;17.60;91.10;;;;;;4125554;28;20372;-80
2021/05/21 09:40:14;;;;;;;9.63;2.90;;;17.50;89.30;;;;;;4134853;28;20544;-81
2021/05/21 09:42:18;;;;;;;11.05;2.80;;;17.40;89.40;;;;;;4127474;28;20045;-80
2021/05/21 09:44:19;;;;;;;8.30;2.25;;;17.30;88.60;;;;;;4131840;28;20030;-80
2021/05/21 09:46:20;;;;;;;11.60;3.13;;;17.20;85.60;;;;;;4113729;28;20117;-81
2021/05/21 09:48:29;;;;;;;13.77;2.72;;;17.10;86.70;;;;;;4129463;28;20568;-80
2021/05/21 09:50:48;;;;;;;10.30;2.67;;;17.00;87.40;;;;;;4114266;28;20525;-79
2021/05/21 09:52:50;;;;;;;11.73;2.92;;;16.90;90.20;;;;;;4128059;28;20189;-79
2021/05/21 09:54:55;;;;;;;10.65;3.10;;;16.90;90.20;;;;;;4125997;28;20045;-79
2021/05/21 09:57:09;;;;;;;10.38;2.40;;;16.90;87.70;;;;;;4126302;28;20350;-79
2021/05/21 09:59:11;;;;;;;11.10;2.67;;;17.00;88.70;;;;;;4129033;28;20042;-78
2021/05/21 10:01:25;;;;;;;12.32;2.78;;;17.20;89.20;;;;;;4131632;28;20041;-79
2021/05/21 10:03:25;;;;;;;10.18;2.67;;;17.40;87.00;;;;;;4124511;28;20062;-78
2021/05/21 10:05:33;;;;;;;8.63;2.40;;;17.40;86.30;;;;;;4133553;28;20371;-79
2021/05/21 10:07:35;;;;;;;11.77;3.10;;;17.60;83.80;;;;;;4129147;28;20029;-79
2021/05/21 10:09:36;;;;;;;9.88;2.50;;;17.50;82.40;;;;;;4130004;28;20112;-79
2021/05/21 10:11:42;;;;;;;8.55;2.45;;;17.60;85.80;;;;;;4132947;28;20033;-79
2021/05/21 10:13:45;;;;;;;15.40;2.95;;;17.50;80.60;;;;;;4127540;28;20078;-79
2021/05/21 10:15:46;;;;;;;12.25;2.83;;;17.40;83.10;;;;;;4126044;28;20042;-79
2021/05/21 10:17:49;;;;;;;7.57;2.63;;;17.40;84.30;;;;;;4129695;28;20620;-79
2021/05/21 10:19:53;;;;;;;14.50;2.42;;;17.40;85.10;;;;;;4126131;28;20073;-79
2021/05/21 10:21:55;;;;;;;12.13;2.63;;;17.40;87.20;;;;;;4128861;28;20051;-79
2021/05/21 10:23:58;;;;;;;8.85;2.53;;;17.40;85.30;;;;;;4110388;28;20043;-79
2021/05/21 10:26:16;;;;;;;7.30;2.15;;;17.40;81.40;;;;;;4128375;28;20045;-79
2021/05/21 10:28:18;;;;;;;8.27;2.38;;;17.40;81.20;;;;;;4136861;28;20045;-80
2021/05/21 10:30:26;;;;;;;13.00;2.55;;;17.50;86.10;;;;;;4129038;28;20039;-79
2021/05/21 10:32:30;;;;;;;9.32;2.60;;;17.60;80.70;;;;;;4133448;28;20041;-79
2021/05/21 10:34:40;;;;;;;8.45;2.70;;;17.60;75.00;;;;;;4129037;28;20121;-79
2021/05/21 10:36:43;;;;;;;9.38;2.55;;;17.70;77.00;;;;;;4130910;28;20050;-81
2021/05/21 10:39:07;;;;;;;7.53;2.10;;;17.70;78.90;;;;;;4129074;28;20797;-81